Time;durP1;ratioP1;P1;durP2;ratioP2;P2;SDS_P1;SDS_P2;PMS_P1;PMS_P2;Temp;Humidity;BMP_temperature;BMP_pressure;BME280_temperature;BME280_humidity;BME280_pressure;Samples;Min_cycle;Max_cycle;Signal;HPM_P1;HPM_P2
2024/03/29 00:00:53;;;;;;;20.25;9.65;;;;;;;;;;5033694;28;20127;-65
2024/03/29 00:03:18;;;;;;;20.63;9.38;;;;;;;;;;5033228;28;20088;-66
2024/03/29 00:05:44;;;;;;;17.40;9.45;;;;;;;;;;5033824;28;20037;-66
2024/03/29 00:08:10;;;;;;;24.05;10.63;;;;;;;;;;5034672;28;20029;-66
2024/03/29 00:10:36;;;;;;;19.83;9.63;;;;;;;;;;5035235;28;20079;-65
2024/03/29 00:13:01;;;;;;;17.02;9.23;;;;;;;;;;5034653;28;20117;-65
2024/03/29 00:15:27;;;;;;;20.58;9.63;;;;;;;;;;5034964;28;20486;-65
2024/03/29 00:17:53;;;;;;;17.15;9.90;;;;;;;;;;5033358;28;20537;-65
2024/03/29 00:20:21;;;;;;;19.45;9.70;;;;;;;;;;5033521;28;20094;-64
2024/03/29 00:22:47;;;;;;;20.27;9.68;;;;;;;;;;5034337;28;20033;-64
2024/03/29 00:25:12;;;;;;;20.52;9.70;;;;;;;;;;5033542;28;20044;-63
2024/03/29 00:27:38;;;;;;;19.40;9.75;;;;;;;;;;5034453;28;20029;-65
2024/03/29 00:30:04;;;;;;;19.30;9.82;;;;;;;;;;5034667;28;20046;-63
2024/03/29 00:32:32;;;;;;;21.50;9.95;;;;;;;;;;5034329;28;20125;-66
2024/03/29 00:34:57;;;;;;;22.67;9.95;;;;;;;;;;5034536;28;20124;-65
2024/03/29 00:37:23;;;;;;;18.63;9.90;;;;;;;;;;5033778;28;20104;-65
2024/03/29 00:39:49;;;;;;;21.98;10.02;;;;;;;;;;5032946;28;20131;-65
2024/03/29 00:42:16;;;;;;;18.15;8.82;;;;;;;;;;5034229;28;20034;-65
2024/03/29 00:44:42;;;;;;;25.95;10.65;;;;;;;;;;5034097;28;20048;-65
2024/03/29 00:47:08;;;;;;;17.58;9.25;;;;;;;;;;5034300;28;20037;-65
2024/03/29 00:49:34;;;;;;;16.38;9.10;;;;;;;;;;5033770;28;20045;-64
2024/03/29 00:52:00;;;;;;;19.50;9.48;;;;;;;;;;5033587;28;20029;-66
2024/03/29 00:54:26;;;;;;;18.23;9.43;;;;;;;;;;5032519;28;20040;-65
2024/03/29 00:56:51;;;;;;;17.10;8.35;;;;;;;;;;5022677;28;20520;-66
2024/03/29 00:59:17;;;;;;;23.75;10.27;;;;;;;;;;5033324;28;20076;-64
2024/03/29 01:01:42;;;;;;;18.05;9.43;;;;;;;;;;5014303;28;20034;-67
2024/03/29 01:04:08;;;;;;;18.08;8.77;;;;;;;;;;5032742;28;20727;-65
2024/03/29 01:06:33;;;;;;;17.85;10.05;;;;;;;;;;5022590;28;20037;-67
2024/03/29 01:09:03;;;;;;;22.95;8.80;;;;;;;;;;5025138;28;20049;-65
2024/03/29 01:11:29;;;;;;;20.60;10.02;;;;;;;;;;5033254;28;20048;-66
2024/03/29 01:13:54;;;;;;;18.15;9.73;;;;;;;;;;5053904;28;20037;-65
2024/03/29 01:16:20;;;;;;;22.92;9.98;;;;;;;;;;5032210;28;20048;-66
2024/03/29 01:18:46;;;;;;;22.10;9.80;;;;;;;;;;5033058;28;20175;-65
2024/03/29 01:21:15;;;;;;;21.27;10.27;;;;;;;;;;5033681;28;20041;-65
2024/03/29 01:23:41;;;;;;;22.33;10.32;;;;;;;;;;5033070;28;20033;-66
2024/03/29 01:26:07;;;;;;;18.38;9.60;;;;;;;;;;5033205;28;20048;-65
2024/03/29 01:28:32;;;;;;;18.10;9.75;;;;;;;;;;5033222;28;20041;-65
2024/03/29 01:31:01;;;;;;;16.50;9.48;;;;;;;;;;5033281;28;20033;-66
2024/03/29 01:33:27;;;;;;;23.73;9.90;;;;;;;;;;5033306;28;20099;-65
2024/03/29 01:35:53;;;;;;;26.27;10.93;;;;;;;;;;5031373;28;20510;-66
2024/03/29 01:38:20;;;;;;;19.55;9.02;;;;;;;;;;5032658;28;20029;-66
2024/03/29 01:40:48;;;;;;;18.20;9.80;;;;;;;;;;5031904;28;20033;-66
2024/03/29 01:43:13;;;;;;;21.83;9.93;;;;;;;;;;5031856;28;20035;-65
2024/03/29 01:45:39;;;;;;;22.05;10.13;;;;;;;;;;5032715;28;20041;-66
2024/03/29 01:48:06;;;;;;;24.92;10.25;;;;;;;;;;5031847;28;20102;-65
2024/03/29 01:50:31;;;;;;;20.50;10.65;;;;;;;;;;5033068;28;20033;-65
2024/03/29 01:52:57;;;;;;;25.13;11.20;;;;;;;;;;5033075;28;20124;-65
2024/03/29 01:55:23;;;;;;;20.20;10.43;;;;;;;;;;5032931;28;20486;-65
2024/03/29 01:57:50;;;;;;;20.55;9.88;;;;;;;;;;5031064;28;20072;-64
2024/03/29 02:00:16;;;;;;;17.90;10.27;;;;;;;;;;5032309;28;20541;-65
2024/03/29 02:02:41;;;;;;;20.05;10.52;;;;;;;;;;5031288;28;20033;-65
2024/03/29 02:05:07;;;;;;;23.83;10.77;;;;;;;;;;5031374;28;20044;-64
2024/03/29 02:07:33;;;;;;;20.55;10.93;;;;;;;;;;5013008;28;20040;-65
2024/03/29 02:09:59;;;;;;;26.23;10.68;;;;;;;;;;5012987;28;20053;-65
2024/03/29 02:12:25;;;;;;;18.85;10.73;;;;;;;;;;5030108;28;20069;-66
2024/03/29 02:14:51;;;;;;;22.20;11.05;;;;;;;;;;5031876;28;20490;-64
2024/03/29 02:17:16;;;;;;;18.52;9.75;;;;;;;;;;5032055;28;20046;-66
2024/03/29 02:19:42;;;;;;;21.17;11.02;;;;;;;;;;5032053;28;20102;-66
2024/03/29 02:22:10;;;;;;;19.63;10.50;;;;;;;;;;5032111;28;20037;-66
2024/03/29 02:24:35;;;;;;;24.15;11.23;;;;;;;;;;5032435;28;20049;-66
2024/03/29 02:27:01;;;;;;;22.52;11.48;;;;;;;;;;5031053;28;20043;-66
2024/03/29 02:29:27;;;;;;;22.63;11.48;;;;;;;;;;5031120;28;20041;-65
2024/03/29 02:31:52;;;;;;;21.30;10.73;;;;;;;;;;5030757;28;20037;-66
2024/03/29 02:34:18;;;;;;;22.67;11.07;;;;;;;;;;5032073;28;20037;-65
2024/03/29 02:36:45;;;;;;;21.45;10.73;;;;;;;;;;5013954;28;20065;-65
2024/03/29 02:39:11;;;;;;;20.63;11.20;;;;;;;;;;5030653;28;20483;-65
2024/03/29 02:41:36;;;;;;;21.40;11.52;;;;;;;;;;5031808;28;20051;-65
2024/03/29 02:44:02;;;;;;;24.33;11.73;;;;;;;;;;5013453;28;20039;-65
2024/03/29 02:46:27;;;;;;;24.42;13.02;;;;;;;;;;5030488;28;20136;-66
2024/03/29 02:48:53;;;;;;;27.63;12.55;;;;;;;;;;5031794;28;20048;-65
2024/03/29 02:51:19;;;;;;;22.20;11.55;;;;;;;;;;5032095;28;20038;-65
2024/03/29 02:53:44;;;;;;;23.42;12.25;;;;;;;;;;5030335;28;20479;-65
2024/03/29 02:56:10;;;;;;;21.60;11.55;;;;;;;;;;5031579;28;20533;-66
2024/03/29 02:58:35;;;;;;;27.33;12.35;;;;;;;;;;5031610;28;20120;-66
2024/03/29 03:01:08;;;;;;;22.20;10.98;;;;;;;;;;5030470;28;20048;-66
2024/03/29 03:03:35;;;;;;;24.50;12.32;;;;;;;;;;5030401;28;20029;-65
2024/03/29 03:06:00;;;;;;;31.48;12.77;;;;;;;;;;5031752;28;20083;-66
2024/03/29 03:11:10;;;;;;;23.38;11.60;;;;;;;;;;5030830;28;20025;-64
2024/03/29 03:13:36;;;;;;;20.98;11.43;;;;;;;;;;5029836;28;20402;-66
2024/03/29 03:16:01;;;;;;;28.15;11.77;;;;;;;;;;5029098;28;20041;-66
2024/03/29 03:18:27;;;;;;;25.00;12.20;;;;;;;;;;5031129;28;20036;-65
2024/03/29 03:20:53;;;;;;;24.70;12.77;;;;;;;;;;5031315;28;20037;-66
2024/03/29 03:23:18;;;;;;;26.75;13.02;;;;;;;;;;5029913;28;20172;-65
2024/03/29 03:25:44;;;;;;;26.50;12.40;;;;;;;;;;5030248;28;20052;-68
2024/03/29 03:28:10;;;;;;;24.33;11.93;;;;;;;;;;5029792;28;20055;-66
2024/03/29 03:30:39;;;;;;;26.25;12.20;;;;;;;;;;5031800;28;20037;-65
2024/03/29 03:33:05;;;;;;;24.17;11.80;;;;;;;;;;5029909;28;20401;-66
2024/03/29 03:35:31;;;;;;;24.90;12.75;;;;;;;;;;5031700;28;20128;-65
2024/03/29 03:37:57;;;;;;;21.50;11.88;;;;;;;;;;5029915;28;20241;-67
2024/03/29 03:40:22;;;;;;;27.55;12.15;;;;;;;;;;5031317;28;20034;-66
2024/03/29 03:42:48;;;;;;;28.05;11.60;;;;;;;;;;5031360;28;20180;-66
2024/03/29 03:45:14;;;;;;;23.98;12.32;;;;;;;;;;5013168;28;20197;-66
2024/03/29 03:47:39;;;;;;;22.20;11.95;;;;;;;;;;5029532;28;20087;-65
2024/03/29 03:50:05;;;;;;;25.73;13.20;;;;;;;;;;5030776;28;20079;-65
2024/03/29 03:52:30;;;;;;;30.08;12.30;;;;;;;;;;4996923;28;20034;-66
2024/03/29 03:54:56;;;;;;;26.10;12.60;;;;;;;;;;5029332;28;20104;-66
2024/03/29 03:57:22;;;;;;;21.77;11.65;;;;;;;;;;5029643;28;20423;-65
2024/03/29 03:59:49;;;;;;;21.00;11.13;;;;;;;;;;5029712;28;20041;-66
2024/03/29 04:02:15;;;;;;;25.40;11.95;;;;;;;;;;5029057;28;20029;-65
2024/03/29 04:04:41;;;;;;;29.65;12.68;;;;;;;;;;5029428;28;20049;-65
2024/03/29 04:07:07;;;;;;;28.92;12.13;;;;;;;;;;5030093;28;20048;-66
2024/03/29 04:09:33;;;;;;;26.02;12.85;;;;;;;;;;5027220;28;20030;-65
2024/03/29 04:12:00;;;;;;;24.38;12.48;;;;;;;;;;4996537;28;20041;-66
2024/03/29 04:14:26;;;;;;;22.83;12.30;;;;;;;;;;5030065;28;20449;-65
2024/03/29 04:16:51;;;;;;;24.38;12.45;;;;;;;;;;5012775;28;20506;-65
2024/03/29 04:19:17;;;;;;;23.92;12.38;;;;;;;;;;5028005;28;20400;-65
2024/03/29 04:21:43;;;;;;;25.52;12.15;;;;;;;;;;5030783;28;20029;-66
2024/03/29 04:24:09;;;;;;;29.63;13.02;;;;;;;;;;5030813;28;20095;-65
2024/03/29 04:26:36;;;;;;;26.90;12.88;;;;;;;;;;5030390;28;20553;-65
2024/03/29 04:29:02;;;;;;;24.80;12.75;;;;;;;;;;5029150;28;20437;-65
2024/03/29 04:31:27;;;;;;;26.95;12.68;;;;;;;;;;5030057;28;20033;-64
2024/03/29 04:33:53;;;;;;;29.40;12.90;;;;;;;;;;5028954;28;20414;-65
2024/03/29 04:36:18;;;;;;;25.15;12.82;;;;;;;;;;5030222;28;20065;-65
2024/03/29 04:38:44;;;;;;;26.55;12.93;;;;;;;;;;5032772;28;20305;-65
2024/03/29 04:41:10;;;;;;;26.00;12.35;;;;;;;;;;5032482;28;20091;-64
2024/03/29 04:43:35;;;;;;;20.50;11.15;;;;;;;;;;5033588;28;20056;-64
2024/03/29 04:46:09;;;;;;;26.08;12.57;;;;;;;;;;5033899;28;20056;-64
2024/03/29 04:48:35;;;;;;;22.80;11.40;;;;;;;;;;5033924;28;20038;-64
2024/03/29 04:51:01;;;;;;;19.70;11.48;;;;;;;;;;5032281;28;20025;-66
2024/03/29 04:53:26;;;;;;;29.80;12.32;;;;;;;;;;5033768;28;20038;-66
2024/03/29 04:55:58;;;;;;;23.35;11.52;;;;;;;;;;5032203;28;20069;-65
2024/03/29 04:58:24;;;;;;;17.55;11.02;;;;;;;;;;5030434;28;20029;-64
2024/03/29 05:00:50;;;;;;;22.27;11.77;;;;;;;;;;5030862;28;20034;-65
2024/03/29 05:03:17;;;;;;;25.15;11.70;;;;;;;;;;5050846;28;20037;-64
2024/03/29 05:05:42;;;;;;;25.77;12.40;;;;;;;;;;5040431;28;20036;-65
2024/03/29 05:08:08;;;;;;;20.25;12.50;;;;;;;;;;5033325;28;20433;-68
2024/03/29 05:10:34;;;;;;;21.10;11.98;;;;;;;;;;5033259;28;20068;-64
2024/03/29 05:13:01;;;;;;;22.85;12.90;;;;;;;;;;5033324;28;20041;-65
2024/03/29 05:15:26;;;;;;;22.20;12.32;;;;;;;;;;5032329;28;20043;-65
2024/03/29 05:17:53;;;;;;;18.95;11.85;;;;;;;;;;5031530;28;20038;-66
2024/03/29 05:20:19;;;;;;;24.10;13.05;;;;;;;;;;5033346;28;20044;-69
2024/03/29 05:22:45;;;;;;;20.27;12.27;;;;;;;;;;5030379;28;20075;-66
2024/03/29 05:25:10;;;;;;;22.70;11.52;;;;;;;;;;5031402;28;20410;-64
2024/03/29 05:27:36;;;;;;;25.98;12.73;;;;;;;;;;5032953;28;20559;-63
2024/03/29 05:30:03;;;;;;;21.42;12.85;;;;;;;;;;5033470;28;20136;-66
2024/03/29 05:32:31;;;;;;;23.90;12.82;;;;;;;;;;5031569;28;20512;-67
2024/03/29 05:34:56;;;;;;;22.52;12.00;;;;;;;;;;5033357;28;20084;-68
2024/03/29 05:37:24;;;;;;;29.30;11.75;;;;;;;;;;5031731;28;20140;-65
2024/03/29 05:39:58;;;;;;;21.88;11.57;;;;;;;;;;5032747;28;20045;-66
2024/03/29 05:42:27;;;;;;;22.73;11.90;;;;;;;;;;5033071;28;20041;-67
2024/03/29 05:44:53;;;;;;;25.20;12.48;;;;;;;;;;5033269;28;20501;-69
2024/03/29 05:47:19;;;;;;;25.80;11.82;;;;;;;;;;5031577;28;20079;-68
2024/03/29 05:49:44;;;;;;;26.20;11.80;;;;;;;;;;5031612;28;20045;-64
2024/03/29 05:52:10;;;;;;;20.92;12.20;;;;;;;;;;5032902;28;20117;-67
2024/03/29 05:54:35;;;;;;;26.77;12.80;;;;;;;;;;5032712;28;20041;-66
2024/03/29 05:57:01;;;;;;;22.38;11.43;;;;;;;;;;5031074;28;20077;-66
2024/03/29 05:59:27;;;;;;;21.33;11.70;;;;;;;;;;5032704;28;20124;-65
2024/03/29 06:01:52;;;;;;;25.10;13.93;;;;;;;;;;5032791;28;20125;-65
2024/03/29 06:04:19;;;;;;;21.38;12.50;;;;;;;;;;5032290;28;20128;-65
2024/03/29 06:06:44;;;;;;;24.05;11.82;;;;;;;;;;5031871;28;20064;-65
2024/03/29 06:09:10;;;;;;;25.02;12.02;;;;;;;;;;5030204;28;20041;-64
2024/03/29 06:11:36;;;;;;;24.52;12.05;;;;;;;;;;5052248;28;20033;-63
2024/03/29 06:19:17;;;;;;;19.30;10.15;;;;;;;;;;5030512;28;20045;-63
2024/03/29 06:21:43;;;;;;;22.02;11.82;;;;;;;;;;5029965;28;20117;-64
2024/03/29 06:24:12;;;;;;;28.92;12.02;;;;;;;;;;5030293;28;20072;-65
2024/03/29 06:26:38;;;;;;;24.25;11.68;;;;;;;;;;5030437;28;20036;-66
2024/03/29 06:29:03;;;;;;;25.88;11.63;;;;;;;;;;5029618;28;20136;-64
2024/03/29 06:31:29;;;;;;;27.63;11.32;;;;;;;;;;5025959;28;20132;-63
2024/03/29 06:33:55;;;;;;;22.15;10.90;;;;;;;;;;5020817;28;20034;-68
2024/03/29 06:36:21;;;;;;;23.73;11.15;;;;;;;;;;5013524;28;20422;-65
2024/03/29 06:38:46;;;;;;;25.48;11.07;;;;;;;;;;5031391;28;20033;-64
2024/03/29 06:41:12;;;;;;;23.80;12.02;;;;;;;;;;5030993;28;20112;-66
2024/03/29 06:43:40;;;;;;;23.67;11.60;;;;;;;;;;5031126;28;20044;-65
2024/03/29 06:46:06;;;;;;;29.42;11.50;;;;;;;;;;5053419;28;20033;-64
2024/03/29 06:48:31;;;;;;;17.55;10.98;;;;;;;;;;5053513;28;20038;-69
2024/03/29 06:50:58;;;;;;;19.45;11.07;;;;;;;;;;5030759;28;20029;-66
2024/03/29 06:53:24;;;;;;;28.95;13.25;;;;;;;;;;5031095;28;20029;-65
2024/03/29 06:55:50;;;;;;;19.90;11.75;;;;;;;;;;5056040;28;20561;-68
2024/03/29 06:58:16;;;;;;;20.67;12.15;;;;;;;;;;5010544;28;20034;-65
2024/03/29 07:00:45;;;;;;;20.92;11.07;;;;;;;;;;5017276;28;20056;-66
2024/03/29 07:03:10;;;;;;;19.15;10.52;;;;;;;;;;5031308;28;20101;-65
2024/03/29 07:05:36;;;;;;;21.45;10.00;;;;;;;;;;5029812;28;20118;-64
2024/03/29 07:08:01;;;;;;;19.02;10.30;;;;;;;;;;5031536;28;20041;-64
2024/03/29 07:10:27;;;;;;;19.98;10.02;;;;;;;;;;5031264;28;20513;-66
2024/03/29 07:12:52;;;;;;;21.77;10.07;;;;;;;;;;5030114;28;20475;-66
2024/03/29 07:15:18;;;;;;;16.00;10.13;;;;;;;;;;5029614;28;20087;-66
2024/03/29 07:17:44;;;;;;;21.52;9.98;;;;;;;;;;5031455;28;20041;-66
2024/03/29 07:20:09;;;;;;;17.25;9.50;;;;;;;;;;5031179;28;20383;-64
2024/03/29 07:22:35;;;;;;;24.70;10.30;;;;;;;;;;5030540;28;20029;-67
2024/03/29 07:25:01;;;;;;;23.92;10.32;;;;;;;;;;5030743;28;20255;-65
2024/03/29 07:27:29;;;;;;;21.67;10.05;;;;;;;;;;5030435;28;20450;-66
2024/03/29 07:29:55;;;;;;;24.23;10.77;;;;;;;;;;5030893;28;20034;-64
2024/03/29 07:32:20;;;;;;;20.85;11.25;;;;;;;;;;5051384;28;20033;-66
2024/03/29 07:34:46;;;;;;;18.70;9.88;;;;;;;;;;5037521;28;20033;-65
2024/03/29 07:37:16;;;;;;;22.52;10.52;;;;;;;;;;5027165;28;20089;-64
2024/03/29 07:39:42;;;;;;;20.58;10.40;;;;;;;;;;5029295;28;20037;-64
2024/03/29 07:42:08;;;;;;;17.15;9.70;;;;;;;;;;5026158;28;20037;-66
2024/03/29 07:44:34;;;;;;;22.27;10.60;;;;;;;;;;5019721;28;20034;-65
2024/03/29 07:46:59;;;;;;;20.80;10.05;;;;;;;;;;5021959;28;20041;-66
2024/03/29 07:49:25;;;;;;;19.95;10.02;;;;;;;;;;5028983;28;20479;-64
2024/03/29 07:51:50;;;;;;;22.55;10.00;;;;;;;;;;5024524;28;20487;-67
2024/03/29 07:54:16;;;;;;;22.55;10.48;;;;;;;;;;5019625;28;20069;-64
2024/03/29 07:56:41;;;;;;;24.65;9.68;;;;;;;;;;5030072;28;20037;-67
2024/03/29 07:59:07;;;;;;;20.50;10.18;;;;;;;;;;5030382;28;20033;-66
2024/03/29 08:01:32;;;;;;;17.70;10.02;;;;;;;;;;5030657;28;20056;-65
2024/03/29 08:03:58;;;;;;;25.52;10.88;;;;;;;;;;5030397;28;20495;-65
2024/03/29 08:06:24;;;;;;;20.30;10.13;;;;;;;;;;5029286;28;20079;-65
2024/03/29 08:08:50;;;;;;;23.45;10.68;;;;;;;;;;5030495;28;20483;-66
2024/03/29 08:11:16;;;;;;;24.40;10.38;;;;;;;;;;5030828;28;20026;-64
2024/03/29 08:13:41;;;;;;;22.67;10.65;;;;;;;;;;5032340;28;20103;-66
2024/03/29 08:16:07;;;;;;;17.52;10.35;;;;;;;;;;5028481;28;20041;-64
2024/03/29 08:18:36;;;;;;;28.00;10.85;;;;;;;;;;5052030;28;20124;-66
2024/03/29 08:21:02;;;;;;;20.02;10.18;;;;;;;;;;5032773;28;20033;-65
2024/03/29 08:23:28;;;;;;;19.35;10.68;;;;;;;;;;5034008;28;20060;-65
2024/03/29 08:25:55;;;;;;;15.48;9.23;;;;;;;;;;5016104;28;20064;-64
2024/03/29 08:28:22;;;;;;;22.05;10.60;;;;;;;;;;5030409;28;20037;-66
2024/03/29 08:31:01;;;;;;;23.13;10.43;;;;;;;;;;5062848;28;20033;-67
2024/03/29 08:33:27;;;;;;;17.70;10.15;;;;;;;;;;5032626;28;20033;-64
2024/03/29 08:35:52;;;;;;;23.85;10.68;;;;;;;;;;5028288;28;20048;-65
2024/03/29 08:38:18;;;;;;;20.00;10.40;;;;;;;;;;5034646;28;20087;-64
2024/03/29 08:40:46;;;;;;;23.83;12.43;;;;;;;;;;5033920;28;20494;-66
2024/03/29 08:43:12;;;;;;;24.40;11.50;;;;;;;;;;5065706;28;20033;-66
2024/03/29 08:45:40;;;;;;;22.75;10.88;;;;;;;;;;5032236;28;20452;-64
2024/03/29 08:48:07;;;;;;;20.25;10.05;;;;;;;;;;5033953;28;20124;-65
2024/03/29 08:50:32;;;;;;;17.38;10.50;;;;;;;;;;5044758;28;20042;-66
2024/03/29 08:52:58;;;;;;;19.38;10.18;;;;;;;;;;5014084;28;20049;-68
2024/03/29 08:55:23;;;;;;;23.65;10.63;;;;;;;;;;5029568;28;20434;-65
2024/03/29 08:57:49;;;;;;;18.55;10.32;;;;;;;;;;5033835;28;20124;-65
2024/03/29 09:00:15;;;;;;;19.70;9.90;;;;;;;;;;5033568;28;20042;-65
2024/03/29 09:02:40;;;;;;;19.92;10.02;;;;;;;;;;5033730;28;20033;-64
2024/03/29 09:05:06;;;;;;;20.95;9.98;;;;;;;;;;5065297;28;20507;-63
2024/03/29 09:07:32;;;;;;;21.67;10.02;;;;;;;;;;5032026;28;20069;-66
2024/03/29 09:09:57;;;;;;;23.90;10.43;;;;;;;;;;5031757;28;20111;-64
2024/03/29 09:12:23;;;;;;;22.35;11.32;;;;;;;;;;5033105;28;20029;-66
2024/03/29 09:14:49;;;;;;;18.13;10.48;;;;;;;;;;5025754;28;20049;-64
2024/03/29 09:17:14;;;;;;;19.88;10.38;;;;;;;;;;5032526;28;20037;-66
2024/03/29 09:19:40;;;;;;;17.92;10.68;;;;;;;;;;5032550;28;20391;-64
2024/03/29 09:22:05;;;;;;;17.80;10.82;;;;;;;;;;5032924;28;20491;-65
2024/03/29 09:24:31;;;;;;;22.83;11.48;;;;;;;;;;5032815;28;20479;-65
2024/03/29 09:26:57;;;;;;;17.08;10.60;;;;;;;;;;5031812;28;20116;-65
2024/03/29 09:29:23;;;;;;;22.55;11.38;;;;;;;;;;5031472;28;20475;-65
2024/03/29 09:31:48;;;;;;;21.02;11.18;;;;;;;;;;5005930;28;20038;-65
2024/03/29 09:34:14;;;;;;;15.82;10.18;;;;;;;;;;5012964;28;20041;-64
2024/03/29 09:36:40;;;;;;;19.92;10.70;;;;;;;;;;5027570;28;20494;-64
2024/03/29 09:39:05;;;;;;;25.05;11.48;;;;;;;;;;5032516;28;20044;-64
2024/03/29 09:41:35;;;;;;;17.30;10.80;;;;;;;;;;5032562;28;20049;-67
2024/03/29 09:44:02;;;;;;;16.75;9.88;;;;;;;;;;5032827;28;20045;-64
2024/03/29 09:46:29;;;;;;;21.13;10.35;;;;;;;;;;5030989;28;20411;-66
2024/03/29 09:48:55;;;;;;;20.48;10.82;;;;;;;;;;5031673;28;20374;-65
2024/03/29 09:51:21;;;;;;;21.92;10.85;;;;;;;;;;5032104;28;20037;-66
2024/03/29 09:53:47;;;;;;;20.50;10.27;;;;;;;;;;5032827;28;20037;-66
2024/03/29 09:56:13;;;;;;;16.80;10.38;;;;;;;;;;5031823;28;20509;-66
2024/03/29 09:58:38;;;;;;;18.38;9.73;;;;;;;;;;5032225;28;20045;-65
2024/03/29 10:01:04;;;;;;;20.17;10.15;;;;;;;;;;5031732;28;20033;-66
2024/03/29 10:03:32;;;;;;;23.25;10.13;;;;;;;;;;5032434;28;20132;-66
2024/03/29 10:05:58;;;;;;;19.80;10.23;;;;;;;;;;5028645;28;20398;-63
2024/03/29 10:08:26;;;;;;;16.50;9.95;;;;;;;;;;5053994;28;20124;-66
2024/03/29 10:10:52;;;;;;;18.80;9.95;;;;;;;;;;5024912;28;20061;-64
2024/03/29 10:13:18;;;;;;;27.08;10.88;;;;;;;;;;5013586;28;20029;-64
2024/03/29 10:15:49;;;;;;;18.83;10.68;;;;;;;;;;5022544;28;20045;-64
2024/03/29 10:18:14;;;;;;;;;;;;;;;;;;5030760;28;20029;-63
2024/03/29 10:20:40;;;;;;;18.85;10.82;;;;;;;;;;5028970;28;19959;-63
2024/03/29 10:23:07;;;;;;;18.45;10.88;;;;;;;;;;5060133;28;20560;-66
2024/03/29 10:25:35;;;;;;;20.83;11.48;;;;;;;;;;5032091;28;20049;-65
2024/03/29 10:28:02;;;;;;;23.77;11.18;;;;;;;;;;5031876;28;20037;-64
2024/03/29 10:30:28;;;;;;;20.13;11.98;;;;;;;;;;5030086;28;20040;-64
2024/03/29 10:32:57;;;;;;;21.45;12.77;;;;;;;;;;5031283;28;20037;-67
2024/03/29 10:35:24;;;;;;;17.88;10.85;;;;;;;;;;5031405;28;20037;-66
2024/03/29 10:37:52;;;;;;;19.20;11.00;;;;;;;;;;5031688;28;20076;-65
2024/03/29 10:40:18;;;;;;;18.05;11.77;;;;;;;;;;5030587;28;20084;-66
2024/03/29 10:42:45;;;;;;;18.45;11.27;;;;;;;;;;5030229;28;20384;-65
2024/03/29 10:45:11;;;;;;;22.48;11.63;;;;;;;;;;5031912;28;20412;-65
2024/03/29 10:47:37;;;;;;;23.02;12.50;;;;;;;;;;5013726;28;20037;-69
2024/03/29 10:50:05;;;;;;;26.90;11.23;;;;;;;;;;5030041;28;20517;-66
2024/03/29 10:52:31;;;;;;;22.83;11.45;;;;;;;;;;5030420;28;20037;-65
2024/03/29 10:54:56;;;;;;;17.52;11.45;;;;;;;;;;5031874;28;20487;-65
2024/03/29 10:57:24;;;;;;;23.65;11.50;;;;;;;;;;5013426;28;20041;-68
2024/03/29 10:59:59;;;;;;;22.65;11.93;;;;;;;;;;5031539;28;20037;-65
2024/03/29 11:02:39;;;;;;;24.35;12.30;;;;;;;;;;5031166;28;20095;-65
2024/03/29 11:05:06;;;;;;;19.42;11.68;;;;;;;;;;5030706;28;20033;-66
2024/03/29 11:07:33;;;;;;;24.40;11.55;;;;;;;;;;5029600;28;20026;-66
2024/03/29 11:10:00;;;;;;;18.52;11.23;;;;;;;;;;5030516;28;20041;-66
2024/03/29 11:12:26;;;;;;;20.95;11.60;;;;;;;;;;5030456;28;20120;-64
2024/03/29 11:14:58;;;;;;;21.30;12.30;;;;;;;;;;5030026;28;20550;-65
2024/03/29 11:17:23;;;;;;;22.00;12.88;;;;;;;;;;5031148;28;20045;-64
2024/03/29 11:19:49;;;;;;;18.67;11.68;;;;;;;;;;5029695;28;20037;-65
2024/03/29 11:22:15;;;;;;;20.48;11.70;;;;;;;;;;5031144;28;20037;-67
2024/03/29 11:24:41;;;;;;;19.38;12.32;;;;;;;;;;5031083;28;20049;-62
2024/03/29 11:27:10;;;;;;;23.98;12.35;;;;;;;;;;5009662;28;20395;-63
2024/03/29 11:29:41;;;;;;;22.10;12.05;;;;;;;;;;5029666;28;20123;-65
2024/03/29 11:32:07;;;;;;;;;;;;;;;;;;5029898;28;20120;-64
2024/03/29 11:34:33;;;;;;;21.27;12.18;;;;;;;;;;5031004;28;20413;-63
2024/03/29 11:37:09;;;;;;;26.00;12.00;;;;;;;;;;5030107;28;20426;-64
2024/03/29 11:39:35;;;;;;;19.95;12.75;;;;;;;;;;5031009;28;20048;-64
2024/03/29 11:42:01;;;;;;;19.08;12.32;;;;;;;;;;5030545;28;20083;-65
2024/03/29 11:44:26;;;;;;;20.80;12.95;;;;;;;;;;5030793;28;20033;-66
2024/03/29 11:46:53;;;;;;;19.02;13.15;;;;;;;;;;5013956;28;20612;-63
2024/03/29 11:49:19;;;;;;;22.92;12.75;;;;;;;;;;5066592;28;20033;-64
2024/03/29 11:51:44;;;;;;;22.95;12.90;;;;;;;;;;5034792;28;20042;-62
2024/03/29 11:54:11;;;;;;;21.50;12.98;;;;;;;;;;5033208;28;20433;-63
2024/03/29 11:56:37;;;;;;;23.35;13.40;;;;;;;;;;5033974;28;20041;-65
2024/03/29 11:59:03;;;;;;;20.73;13.40;;;;;;;;;;5034640;28;20047;-62
2024/03/29 12:01:29;;;;;;;27.00;14.05;;;;;;;;;;5016709;28;20029;-62
2024/03/29 12:03:55;;;;;;;23.00;14.70;;;;;;;;;;5034773;28;20454;-62
2024/03/29 12:06:21;;;;;;;23.42;13.25;;;;;;;;;;5034545;28;20037;-64
2024/03/29 12:08:49;;;;;;;22.95;12.65;;;;;;;;;;5066654;28;20479;-62
2024/03/29 12:11:15;;;;;;;30.95;13.25;;;;;;;;;;5056589;28;20053;-66
2024/03/29 12:13:41;;;;;;;26.20;14.07;;;;;;;;;;5014743;28;20038;-63
2024/03/29 12:16:07;;;;;;;24.48;14.38;;;;;;;;;;5023018;28;20072;-65
2024/03/29 12:18:35;;;;;;;28.65;15.00;;;;;;;;;;5033027;28;20033;-65
2024/03/29 12:21:00;;;;;;;21.55;13.25;;;;;;;;;;5033760;28;20033;-65
2024/03/29 12:23:26;;;;;;;25.40;14.65;;;;;;;;;;5034229;28;20134;-66
2024/03/29 12:25:57;;;;;;;27.02;13.27;;;;;;;;;;5034173;28;20116;-65
2024/03/29 12:28:24;;;;;;;26.50;13.48;;;;;;;;;;5016894;28;20541;-66
2024/03/29 12:30:50;;;;;;;25.88;13.82;;;;;;;;;;5033927;28;20037;-65
2024/03/29 12:33:22;;;;;;;37.00;15.07;;;;;;;;;;5034080;28;20041;-63
2024/03/29 12:35:48;;;;;;;23.63;13.60;;;;;;;;;;5031916;28;20474;-64
2024/03/29 12:38:15;;;;;;;30.38;12.82;;;;;;;;;;5033701;28;20057;-63
2024/03/29 12:40:43;;;;;;;24.95;14.38;;;;;;;;;;5033687;28;20029;-63
2024/03/29 12:43:09;;;;;;;25.00;13.68;;;;;;;;;;5033671;28;20033;-63
2024/03/29 12:45:36;;;;;;;24.63;14.25;;;;;;;;;;5032698;28;20048;-64
2024/03/29 12:48:02;;;;;;;19.48;13.10;;;;;;;;;;5032021;28;20466;-63
2024/03/29 12:50:34;;;;;;;25.92;14.40;;;;;;;;;;5032401;28;20095;-62
2024/03/29 12:53:00;;;;;;;27.50;14.13;;;;;;;;;;5030983;28;20531;-63
2024/03/29 12:55:31;;;;;;;23.27;13.38;;;;;;;;;;5032269;28;20060;-62
2024/03/29 12:57:57;;;;;;;29.63;15.20;;;;;;;;;;5033107;28;20041;-62
2024/03/29 13:00:23;;;;;;;25.95;13.80;;;;;;;;;;5031998;28;20076;-63
2024/03/29 13:02:49;;;;;;;27.38;14.82;;;;;;;;;;5033207;28;20037;-64
2024/03/29 13:05:15;;;;;;;23.27;14.50;;;;;;;;;;5031961;28;20553;-63
2024/03/29 13:07:41;;;;;;;26.48;14.43;;;;;;;;;;5033462;28;20041;-64
2024/03/29 13:10:19;;;;;;;24.92;13.93;;;;;;;;;;5033317;28;20048;-64
2024/03/29 13:12:51;;;;;;;23.13;14.23;;;;;;;;;;5031746;28;20033;-63
2024/03/29 13:15:18;;;;;;;28.40;14.65;;;;;;;;;;5032907;28;20522;-63
2024/03/29 13:17:44;;;;;;;27.63;13.63;;;;;;;;;;5031682;28;20057;-63
2024/03/29 13:20:10;;;;;;;26.20;14.38;;;;;;;;;;5032023;28;20286;-64
2024/03/29 13:22:36;;;;;;;30.92;14.95;;;;;;;;;;5033276;28;20029;-63
2024/03/29 13:25:02;;;;;;;28.42;15.07;;;;;;;;;;5031829;28;20064;-63
2024/03/29 13:27:29;;;;;;;25.95;15.13;;;;;;;;;;5032924;28;20491;-64
2024/03/29 13:29:54;;;;;;;27.63;14.73;;;;;;;;;;5032092;28;20103;-64
2024/03/29 13:32:20;;;;;;;24.83;15.63;;;;;;;;;;5033077;28;20518;-66
2024/03/29 13:34:45;;;;;;;26.13;14.35;;;;;;;;;;5012509;28;20125;-62
2024/03/29 13:37:11;;;;;;;32.97;14.80;;;;;;;;;;5029804;28;20068;-65
2024/03/29 13:39:37;;;;;;;25.63;14.57;;;;;;;;;;5032595;28;20034;-63
2024/03/29 13:42:02;;;;;;;36.28;15.02;;;;;;;;;;5032576;28;20044;-64
2024/03/29 13:44:28;;;;;;;35.55;14.63;;;;;;;;;;5032639;28;20045;-62
2024/03/29 13:46:54;;;;;;;31.42;14.57;;;;;;;;;;5030678;28;20395;-64
2024/03/29 13:49:22;;;;;;;34.03;15.40;;;;;;;;;;5031812;28;20479;-63
2024/03/29 13:51:47;;;;;;;30.65;15.93;;;;;;;;;;5028007;28;20096;-63
2024/03/29 13:54:13;;;;;;;25.60;14.20;;;;;;;;;;5032238;28;20487;-64
2024/03/29 13:56:39;;;;;;;32.40;16.27;;;;;;;;;;5031772;28;20053;-65
2024/03/29 13:59:08;;;;;;;26.40;14.52;;;;;;;;;;5031679;28;20041;-63
2024/03/29 14:01:33;;;;;;;31.52;15.23;;;;;;;;;;5032053;28;20083;-66
2024/03/29 14:03:59;;;;;;;30.48;15.40;;;;;;;;;;5027694;28;20495;-64
2024/03/29 14:06:25;;;;;;;27.60;14.38;;;;;;;;;;5021494;28;20403;-64
2024/03/29 14:08:50;;;;;;;23.05;14.23;;;;;;;;;;5029837;28;20136;-62
2024/03/29 14:11:18;;;;;;;28.77;14.05;;;;;;;;;;5030757;28;20036;-64
2024/03/29 14:13:45;;;;;;;25.48;13.98;;;;;;;;;;5031836;28;20080;-63
2024/03/29 14:16:11;;;;;;;22.80;14.40;;;;;;;;;;5023499;28;20095;-63
2024/03/29 14:18:37;;;;;;;32.70;14.85;;;;;;;;;;5031043;28;20038;-64
2024/03/29 14:21:03;;;;;;;26.58;13.75;;;;;;;;;;5029939;28;20034;-65